sensor_id;sensor_type;location;lat;lon;timestamp;P1;durP1;ratioP1;P2;durP2;ratioP2
24743;SDS011;12844;52.110;5.548;2023-03-09T00:00:11;4.15;;;3.55;;
24743;SDS011;12844;52.110;5.548;2023-03-09T00:02:40;3.70;;;3.20;;
24743;SDS011;12844;52.110;5.548;2023-03-09T00:05:06;3.80;;;3.40;;
24743;SDS011;12844;52.110;5.548;2023-03-09T00:07:36;3.10;;;2.72;;
24743;SDS011;12844;52.110;5.548;2023-03-09T00:10:01;3.53;;;3.17;;
24743;SDS011;12844;52.110;5.548;2023-03-09T00:12:28;3.90;;;3.20;;
24743;SDS011;12844;52.110;5.548;2023-03-09T00:14:54;3.30;;;2.90;;
24743;SDS011;12844;52.110;5.548;2023-03-09T00:17:20;4.05;;;3.47;;
24743;SDS011;12844;52.110;5.548;2023-03-09T00:19:45;3.83;;;2.92;;
24743;SDS011;12844;52.110;5.548;2023-03-09T00:22:11;3.92;;;3.42;;
24743;SDS011;12844;52.110;5.548;2023-03-09T00:24:36;4.15;;;3.40;;
24743;SDS011;12844;52.110;5.548;2023-03-09T00:27:11;3.85;;;3.35;;
24743;SDS011;12844;52.110;5.548;2023-03-09T00:29:37;3.53;;;3.22;;
24743;SDS011;12844;52.110;5.548;2023-03-09T00:32:03;4.10;;;3.50;;
24743;SDS011;12844;52.110;5.548;2023-03-09T00:34:29;4.20;;;3.80;;
24743;SDS011;12844;52.110;5.548;2023-03-09T00:36:54;3.28;;;2.95;;
24743;SDS011;12844;52.110;5.548;2023-03-09T00:39:20;3.90;;;3.50;;
24743;SDS011;12844;52.110;5.548;2023-03-09T00:41:46;4.78;;;3.25;;
24743;SDS011;12844;52.110;5.548;2023-03-09T00:44:12;4.80;;;3.47;;
24743;SDS011;12844;52.110;5.548;2023-03-09T00:46:38;4.45;;;3.53;;
24743;SDS011;12844;52.110;5.548;2023-03-09T00:49:05;4.50;;;3.58;;
24743;SDS011;12844;52.110;5.548;2023-03-09T00:51:31;5.15;;;3.50;;
24743;SDS011;12844;52.110;5.548;2023-03-09T00:53:58;3.70;;;3.30;;
24743;SDS011;12844;52.110;5.548;2023-03-09T00:56:24;4.32;;;3.70;;
24743;SDS011;12844;52.110;5.548;2023-03-09T00:58:52;4.10;;;3.63;;
24743;SDS011;12844;52.110;5.548;2023-03-09T01:01:18;3.55;;;3.17;;
24743;SDS011;12844;52.110;5.548;2023-03-09T01:03:44;4.15;;;3.72;;
24743;SDS011;12844;52.110;5.548;2023-03-09T01:06:10;4.55;;;3.70;;
24743;SDS011;12844;52.110;5.548;2023-03-09T01:08:36;4.88;;;3.55;;
24743;SDS011;12844;52.110;5.548;2023-03-09T01:11:06;4.43;;;3.55;;
24743;SDS011;12844;52.110;5.548;2023-03-09T01:13:33;4.07;;;3.42;;
24743;SDS011;12844;52.110;5.548;2023-03-09T01:15:59;4.05;;;3.55;;
24743;SDS011;12844;52.110;5.548;2023-03-09T01:18:24;4.10;;;3.70;;
24743;SDS011;12844;52.110;5.548;2023-03-09T01:20:50;4.35;;;3.67;;
24743;SDS011;12844;52.110;5.548;2023-03-09T01:23:15;5.78;;;3.50;;
24743;SDS011;12844;52.110;5.548;2023-03-09T01:25:41;4.20;;;3.60;;
24743;SDS011;12844;52.110;5.548;2023-03-09T01:28:07;4.55;;;3.80;;
24743;SDS011;12844;52.110;5.548;2023-03-09T01:30:32;4.50;;;3.55;;
24743;SDS011;12844;52.110;5.548;2023-03-09T01:32:58;4.60;;;3.42;;
24743;SDS011;12844;52.110;5.548;2023-03-09T01:35:23;4.35;;;3.20;;
24743;SDS011;12844;52.110;5.548;2023-03-09T01:37:49;4.47;;;3.83;;
24743;SDS011;12844;52.110;5.548;2023-03-09T01:40:19;4.75;;;3.90;;
24743;SDS011;12844;52.110;5.548;2023-03-09T01:42:53;4.03;;;3.63;;
24743;SDS011;12844;52.110;5.548;2023-03-09T01:47:46;4.35;;;3.83;;
24743;SDS011;12844;52.110;5.548;2023-03-09T01:50:12;4.10;;;3.60;;
24743;SDS011;12844;52.110;5.548;2023-03-09T01:52:39;4.90;;;3.78;;
24743;SDS011;12844;52.110;5.548;2023-03-09T01:55:11;4.63;;;3.50;;
24743;SDS011;12844;52.110;5.548;2023-03-09T01:57:46;4.03;;;3.55;;
24743;SDS011;12844;52.110;5.548;2023-03-09T02:00:20;4.35;;;3.78;;
24743;SDS011;12844;52.110;5.548;2023-03-09T02:02:50;4.45;;;4.00;;
24743;SDS011;12844;52.110;5.548;2023-03-09T02:05:26;4.05;;;3.65;;
24743;SDS011;12844;52.110;5.548;2023-03-09T02:07:59;4.32;;;3.70;;
24743;SDS011;12844;52.110;5.548;2023-03-09T02:10:33;4.57;;;3.80;;
24743;SDS011;12844;52.110;5.548;2023-03-09T02:13:08;4.30;;;3.88;;
24743;SDS011;12844;52.110;5.548;2023-03-09T02:15:37;4.75;;;4.25;;
24743;SDS011;12844;52.110;5.548;2023-03-09T02:18:03;4.05;;;3.63;;
24743;SDS011;12844;52.110;5.548;2023-03-09T02:20:32;4.47;;;4.05;;
24743;SDS011;12844;52.110;5.548;2023-03-09T02:23:36;4.57;;;4.10;;
24743;SDS011;12844;52.110;5.548;2023-03-09T02:28:32;4.43;;;4.03;;
24743;SDS011;12844;52.110;5.548;2023-03-09T02:30:58;4.50;;;3.55;;
24743;SDS011;12844;52.110;5.548;2023-03-09T02:33:26;4.70;;;4.15;;
24743;SDS011;12844;52.110;5.548;2023-03-09T02:35:53;5.72;;;4.43;;
24743;SDS011;12844;52.110;5.548;2023-03-09T02:38:23;4.65;;;4.10;;
24743;SDS011;12844;52.110;5.548;2023-03-09T02:40:50;4.75;;;4.05;;
24743;SDS011;12844;52.110;5.548;2023-03-09T02:43:18;4.63;;;3.75;;
24743;SDS011;12844;52.110;5.548;2023-03-09T02:45:47;4.65;;;4.18;;
24743;SDS011;12844;52.110;5.548;2023-03-09T02:48:14;4.57;;;3.95;;
24743;SDS011;12844;52.110;5.548;2023-03-09T02:50:39;4.32;;;3.55;;
24743;SDS011;12844;52.110;5.548;2023-03-09T02:53:05;4.80;;;4.30;;
24743;SDS011;12844;52.110;5.548;2023-03-09T02:55:30;4.53;;;4.00;;
24743;SDS011;12844;52.110;5.548;2023-03-09T02:57:56;5.30;;;4.05;;
24743;SDS011;12844;52.110;5.548;2023-03-09T03:00:21;5.20;;;4.40;;
24743;SDS011;12844;52.110;5.548;2023-03-09T03:02:48;4.53;;;4.05;;
24743;SDS011;12844;52.110;5.548;2023-03-09T03:05:14;4.82;;;4.32;;
24743;SDS011;12844;52.110;5.548;2023-03-09T03:07:40;4.20;;;3.80;;
24743;SDS011;12844;52.110;5.548;2023-03-09T03:10:05;5.45;;;4.30;;
24743;SDS011;12844;52.110;5.548;2023-03-09T03:12:31;4.30;;;3.90;;
24743;SDS011;12844;52.110;5.548;2023-03-09T03:14:57;4.45;;;4.00;;
24743;SDS011;12844;52.110;5.548;2023-03-09T03:17:22;5.00;;;4.10;;
24743;SDS011;12844;52.110;5.548;2023-03-09T03:19:49;4.72;;;4.10;;
24743;SDS011;12844;52.110;5.548;2023-03-09T03:22:14;5.15;;;4.50;;
24743;SDS011;12844;52.110;5.548;2023-03-09T03:24:40;4.40;;;4.00;;
24743;SDS011;12844;52.110;5.548;2023-03-09T03:27:06;5.00;;;4.38;;
24743;SDS011;12844;52.110;5.548;2023-03-09T03:29:32;5.15;;;4.43;;
24743;SDS011;12844;52.110;5.548;2023-03-09T03:31:57;4.65;;;4.00;;
24743;SDS011;12844;52.110;5.548;2023-03-09T03:34:23;4.82;;;4.30;;
24743;SDS011;12844;52.110;5.548;2023-03-09T03:36:49;4.75;;;4.20;;
24743;SDS011;12844;52.110;5.548;2023-03-09T03:39:15;4.57;;;4.18;;
24743;SDS011;12844;52.110;5.548;2023-03-09T03:41:40;4.57;;;4.10;;
24743;SDS011;12844;52.110;5.548;2023-03-09T03:44:06;5.18;;;4.68;;
24743;SDS011;12844;52.110;5.548;2023-03-09T03:46:31;4.80;;;4.28;;
24743;SDS011;12844;52.110;5.548;2023-03-09T03:48:57;5.20;;;4.35;;
24743;SDS011;12844;52.110;5.548;2023-03-09T03:51:22;5.00;;;4.50;;
24743;SDS011;12844;52.110;5.548;2023-03-09T03:53:48;5.32;;;4.65;;
24743;SDS011;12844;52.110;5.548;2023-03-09T03:56:14;4.65;;;4.13;;
24743;SDS011;12844;52.110;5.548;2023-03-09T03:58:39;5.15;;;4.57;;
24743;SDS011;12844;52.110;5.548;2023-03-09T04:01:05;5.45;;;4.55;;
24743;SDS011;12844;52.110;5.548;2023-03-09T04:03:31;4.47;;;4.07;;
24743;SDS011;12844;52.110;5.548;2023-03-09T04:05:57;4.88;;;4.32;;
24743;SDS011;12844;52.110;5.548;2023-03-09T04:08:22;4.97;;;4.30;;
24743;SDS011;12844;52.110;5.548;2023-03-09T04:10:48;4.80;;;4.30;;
24743;SDS011;12844;52.110;5.548;2023-03-09T04:13:13;5.15;;;4.50;;
24743;SDS011;12844;52.110;5.548;2023-03-09T04:15:39;4.88;;;4.38;;
24743;SDS011;12844;52.110;5.548;2023-03-09T04:18:05;5.00;;;4.50;;
24743;SDS011;12844;52.110;5.548;2023-03-09T04:20:32;4.88;;;4.38;;
24743;SDS011;12844;52.110;5.548;2023-03-09T04:22:58;5.47;;;4.50;;
24743;SDS011;12844;52.110;5.548;2023-03-09T04:25:24;5.03;;;4.28;;
24743;SDS011;12844;52.110;5.548;2023-03-09T04:27:49;5.03;;;4.53;;
24743;SDS011;12844;52.110;5.548;2023-03-09T04:30:16;4.68;;;4.25;;
24743;SDS011;12844;52.110;5.548;2023-03-09T04:32:45;4.85;;;4.35;;
24743;SDS011;12844;52.110;5.548;2023-03-09T04:35:11;5.00;;;4.50;;
24743;SDS011;12844;52.110;5.548;2023-03-09T04:37:37;5.18;;;4.60;;
24743;SDS011;12844;52.110;5.548;2023-03-09T04:40:03;4.80;;;4.28;;
24743;SDS011;12844;52.110;5.548;2023-03-09T04:42:30;5.25;;;4.47;;
24743;SDS011;12844;52.110;5.548;2023-03-09T04:44:56;5.05;;;4.55;;
24743;SDS011;12844;52.110;5.548;2023-03-09T04:47:21;4.80;;;4.30;;
24743;SDS011;12844;52.110;5.548;2023-03-09T04:49:47;5.40;;;4.78;;
24743;SDS011;12844;52.110;5.548;2023-03-09T04:52:13;5.07;;;4.57;;
24743;SDS011;12844;52.110;5.548;2023-03-09T04:54:39;5.07;;;4.57;;
24743;SDS011;12844;52.110;5.548;2023-03-09T04:57:05;5.10;;;4.45;;
24743;SDS011;12844;52.110;5.548;2023-03-09T04:59:31;5.05;;;4.40;;
24743;SDS011;12844;52.110;5.548;2023-03-09T05:01:56;4.82;;;4.32;;
24743;SDS011;12844;52.110;5.548;2023-03-09T05:04:22;5.10;;;4.40;;
24743;SDS011;12844;52.110;5.548;2023-03-09T05:06:48;5.15;;;4.65;;
24743;SDS011;12844;52.110;5.548;2023-03-09T05:09:13;4.90;;;4.40;;
24743;SDS011;12844;52.110;5.548;2023-03-09T05:11:39;4.75;;;4.20;;
24743;SDS011;12844;52.110;5.548;2023-03-09T05:14:05;5.80;;;5.00;;
24743;SDS011;12844;52.110;5.548;2023-03-09T05:16:30;5.28;;;4.47;;
24743;SDS011;12844;52.110;5.548;2023-03-09T05:18:56;5.22;;;4.60;;
24743;SDS011;12844;52.110;5.548;2023-03-09T05:21:21;4.82;;;4.32;;
24743;SDS011;12844;52.110;5.548;2023-03-09T05:23:47;4.88;;;4.38;;
24743;SDS011;12844;52.110;5.548;2023-03-09T05:26:12;5.00;;;4.50;;
24743;SDS011;12844;52.110;5.548;2023-03-09T05:28:38;5.15;;;4.65;;
24743;SDS011;12844;52.110;5.548;2023-03-09T05:31:09;5.18;;;4.50;;
24743;SDS011;12844;52.110;5.548;2023-03-09T05:33:36;5.20;;;4.53;;
24743;SDS011;12844;52.110;5.548;2023-03-09T05:36:02;5.78;;;4.80;;
24743;SDS011;12844;52.110;5.548;2023-03-09T06:43:22;4.93;;;4.10;;
24743;SDS011;12844;52.110;5.548;2023-03-09T06:45:48;4.40;;;4.00;;
24743;SDS011;12844;52.110;5.548;2023-03-09T06:48:14;4.38;;;3.88;;
24743;SDS011;12844;52.110;5.548;2023-03-09T06:50:40;4.57;;;4.00;;
24743;SDS011;12844;52.110;5.548;2023-03-09T06:53:05;3.92;;;3.53;;
24743;SDS011;12844;52.110;5.548;2023-03-09T06:55:31;4.07;;;3.67;;
24743;SDS011;12844;52.110;5.548;2023-03-09T07:00:32;4.32;;;3.40;;
24743;SDS011;12844;52.110;5.548;2023-03-09T07:03:02;4.07;;;3.65;;
24743;SDS011;12844;52.110;5.548;2023-03-09T07:05:31;3.92;;;3.28;;
24743;SDS011;12844;52.110;5.548;2023-03-09T07:07:57;4.35;;;3.60;;
24743;SDS011;12844;52.110;5.548;2023-03-09T07:10:22;5.20;;;3.63;;
24743;SDS011;12844;52.110;5.548;2023-03-09T07:12:48;4.20;;;3.40;;
24743;SDS011;12844;52.110;5.548;2023-03-09T07:15:14;4.57;;;3.42;;
24743;SDS011;12844;52.110;5.548;2023-03-09T07:17:40;4.28;;;3.42;;
24743;SDS011;12844;52.110;5.548;2023-03-09T07:20:07;4.70;;;3.40;;
24743;SDS011;12844;52.110;5.548;2023-03-09T07:22:34;3.60;;;3.08;;
24743;SDS011;12844;52.110;5.548;2023-03-09T07:24:59;5.93;;;3.85;;
24743;SDS011;12844;52.110;5.548;2023-03-09T07:27:25;8.15;;;3.90;;
24743;SDS011;12844;52.110;5.548;2023-03-09T07:29:51;5.65;;;3.70;;
24743;SDS011;12844;52.110;5.548;2023-03-09T07:32:16;5.40;;;3.50;;
24743;SDS011;12844;52.110;5.548;2023-03-09T07:34:42;13.00;;;3.97;;
24743;SDS011;12844;52.110;5.548;2023-03-09T07:37:07;5.93;;;3.58;;
24743;SDS011;12844;52.110;5.548;2023-03-09T07:39:33;5.97;;;4.00;;
24743;SDS011;12844;52.110;5.548;2023-03-09T07:41:58;8.43;;;3.83;;
24743;SDS011;12844;52.110;5.548;2023-03-09T07:44:25;7.82;;;3.65;;
24743;SDS011;12844;52.110;5.548;2023-03-09T07:46:51;4.40;;;3.90;;
24743;SDS011;12844;52.110;5.548;2023-03-09T07:49:17;5.15;;;3.97;;
24743;SDS011;12844;52.110;5.548;2023-03-09T07:51:43;5.68;;;4.05;;
24743;SDS011;12844;52.110;5.548;2023-03-09T07:54:09;6.70;;;3.72;;
24743;SDS011;12844;52.110;5.548;2023-03-09T07:56:35;7.80;;;4.40;;
24743;SDS011;12844;52.110;5.548;2023-03-09T07:59:00;5.65;;;4.30;;
24743;SDS011;12844;52.110;5.548;2023-03-09T08:01:26;5.72;;;3.75;;
24743;SDS011;12844;52.110;5.548;2023-03-09T08:03:52;10.98;;;4.40;;
24743;SDS011;12844;52.110;5.548;2023-03-09T08:06:18;6.50;;;4.10;;
24743;SDS011;12844;52.110;5.548;2023-03-09T08:08:44;7.57;;;4.53;;
24743;SDS011;12844;52.110;5.548;2023-03-09T08:11:11;6.57;;;4.63;;
24743;SDS011;12844;52.110;5.548;2023-03-09T08:13:37;6.32;;;4.40;;
24743;SDS011;12844;52.110;5.548;2023-03-09T08:16:04;10.77;;;4.55;;
24743;SDS011;12844;52.110;5.548;2023-03-09T08:18:31;7.53;;;4.57;;
24743;SDS011;12844;52.110;5.548;2023-03-09T08:21:04;7.07;;;4.68;;
24743;SDS011;12844;52.110;5.548;2023-03-09T08:23:35;7.95;;;4.35;;
24743;SDS011;12844;52.110;5.548;2023-03-09T08:26:04;7.50;;;4.63;;
24743;SDS011;12844;52.110;5.548;2023-03-09T08:28:31;8.02;;;4.53;;
24743;SDS011;12844;52.110;5.548;2023-03-09T08:30:56;7.97;;;4.82;;
24743;SDS011;12844;52.110;5.548;2023-03-09T08:33:22;6.00;;;4.70;;
24743;SDS011;12844;52.110;5.548;2023-03-09T08:35:47;7.70;;;4.47;;
24743;SDS011;12844;52.110;5.548;2023-03-09T08:38:13;5.95;;;4.38;;
24743;SDS011;12844;52.110;5.548;2023-03-09T08:40:38;7.18;;;4.30;;
24743;SDS011;12844;52.110;5.548;2023-03-09T08:43:04;6.18;;;4.50;;
24743;SDS011;12844;52.110;5.548;2023-03-09T08:45:30;6.78;;;4.45;;
24743;SDS011;12844;52.110;5.548;2023-03-09T08:47:55;4.95;;;4.40;;
24743;SDS011;12844;52.110;5.548;2023-03-09T08:50:22;6.75;;;4.63;;
24743;SDS011;12844;52.110;5.548;2023-03-09T08:52:47;5.95;;;4.60;;
24743;SDS011;12844;52.110;5.548;2023-03-09T08:55:13;6.03;;;4.53;;
24743;SDS011;12844;52.110;5.548;2023-03-09T08:57:38;7.15;;;5.05;;
24743;SDS011;12844;52.110;5.548;2023-03-09T09:00:05;6.60;;;4.63;;
24743;SDS011;12844;52.110;5.548;2023-03-09T09:02:33;6.45;;;5.15;;
24743;SDS011;12844;52.110;5.548;2023-03-09T09:04:59;7.32;;;5.05;;
24743;SDS011;12844;52.110;5.548;2023-03-09T09:07:24;7.40;;;4.95;;
24743;SDS011;12844;52.110;5.548;2023-03-09T09:09:50;7.63;;;5.07;;
24743;SDS011;12844;52.110;5.548;2023-03-09T09:12:15;6.82;;;4.78;;
24743;SDS011;12844;52.110;5.548;2023-03-09T09:14:41;6.78;;;5.00;;
24743;SDS011;12844;52.110;5.548;2023-03-09T09:17:07;6.38;;;5.07;;
24743;SDS011;12844;52.110;5.548;2023-03-09T09:19:34;6.32;;;5.28;;
24743;SDS011;12844;52.110;5.548;2023-03-09T09:22:00;7.05;;;4.90;;
24743;SDS011;12844;52.110;5.548;2023-03-09T09:24:29;7.80;;;4.72;;
24743;SDS011;12844;52.110;5.548;2023-03-09T09:26:57;5.80;;;4.90;;
24743;SDS011;12844;52.110;5.548;2023-03-09T09:29:22;6.03;;;5.05;;
24743;SDS011;12844;52.110;5.548;2023-03-09T09:31:48;6.47;;;4.78;;
24743;SDS011;12844;52.110;5.548;2023-03-09T09:34:14;6.85;;;5.38;;
24743;SDS011;12844;52.110;5.548;2023-03-09T09:36:42;6.55;;;5.30;;
24743;SDS011;12844;52.110;5.548;2023-03-09T09:39:08;6.13;;;5.30;;
24743;SDS011;12844;52.110;5.548;2023-03-09T09:44:21;7.60;;;5.20;;
24743;SDS011;12844;52.110;5.548;2023-03-09T09:46:54;6.97;;;5.07;;
24743;SDS011;12844;52.110;5.548;2023-03-09T09:49:24;6.70;;;5.50;;
24743;SDS011;12844;52.110;5.548;2023-03-09T09:54:28;9.02;;;5.82;;
24743;SDS011;12844;52.110;5.548;2023-03-09T10:02:52;6.93;;;5.32;;
24743;SDS011;12844;52.110;5.548;2023-03-09T10:05:39;6.75;;;5.32;;
24743;SDS011;12844;52.110;5.548;2023-03-09T10:08:20;6.45;;;5.05;;
24743;SDS011;12844;52.110;5.548;2023-03-09T10:11:02;6.57;;;5.68;;
24743;SDS011;12844;52.110;5.548;2023-03-09T10:13:48;7.40;;;5.25;;
24743;SDS011;12844;52.110;5.548;2023-03-09T10:16:33;6.07;;;5.13;;
24743;SDS011;12844;52.110;5.548;2023-03-09T10:19:05;6.53;;;5.35;;
24743;SDS011;12844;52.110;5.548;2023-03-09T10:21:58;5.97;;;4.88;;
24743;SDS011;12844;52.110;5.548;2023-03-09T10:24:38;6.32;;;5.55;;
24743;SDS011;12844;52.110;5.548;2023-03-09T10:32:21;6.43;;;5.22;;
24743;SDS011;12844;52.110;5.548;2023-03-09T10:34:57;7.05;;;5.38;;
24743;SDS011;12844;52.110;5.548;2023-03-09T10:37:44;6.63;;;5.80;;
24743;SDS011;12844;52.110;5.548;2023-03-09T10:40:19;6.35;;;5.28;;
24743;SDS011;12844;52.110;5.548;2023-03-09T10:42:50;5.85;;;4.97;;
24743;SDS011;12844;52.110;5.548;2023-03-09T10:45:22;7.22;;;5.63;;
24743;SDS011;12844;52.110;5.548;2023-03-09T10:47:54;6.88;;;5.72;;
24743;SDS011;12844;52.110;5.548;2023-03-09T10:50:32;7.22;;;5.72;;
24743;SDS011;12844;52.110;5.548;2023-03-09T10:53:14;6.80;;;5.60;;
24743;SDS011;12844;52.110;5.548;2023-03-09T10:56:41;7.45;;;5.13;;
24743;SDS011;12844;52.110;5.548;2023-03-09T11:01:32;6.72;;;5.70;;
24743;SDS011;12844;52.110;5.548;2023-03-09T11:04:03;6.60;;;5.35;;
24743;SDS011;12844;52.110;5.548;2023-03-09T11:09:19;6.78;;;5.30;;
24743;SDS011;12844;52.110;5.548;2023-03-09T11:12:45;6.80;;;5.60;;
24743;SDS011;12844;52.110;5.548;2023-03-09T11:14:55;6.90;;;5.57;;
24743;SDS011;12844;52.110;5.548;2023-03-09T11:17:33;6.50;;;5.30;;
24743;SDS011;12844;52.110;5.548;2023-03-09T11:22:46;6.40;;;5.13;;
24743;SDS011;12844;52.110;5.548;2023-03-09T11:28:17;6.57;;;5.88;;
24743;SDS011;12844;52.110;5.548;2023-03-09T11:30:51;6.85;;;5.60;;
24743;SDS011;12844;52.110;5.548;2023-03-09T11:33:19;7.15;;;5.40;;
24743;SDS011;12844;52.110;5.548;2023-03-09T11:35:46;7.45;;;5.63;;
24743;SDS011;12844;52.110;5.548;2023-03-09T11:38:15;6.72;;;5.53;;
24743;SDS011;12844;52.110;5.548;2023-03-09T11:40:44;7.35;;;5.78;;
24743;SDS011;12844;52.110;5.548;2023-03-09T11:43:21;6.55;;;5.43;;
24743;SDS011;12844;52.110;5.548;2023-03-09T11:45:53;6.18;;;5.18;;
24743;SDS011;12844;52.110;5.548;2023-03-09T11:50:58;6.70;;;5.35;;
24743;SDS011;12844;52.110;5.548;2023-03-09T11:53:25;6.63;;;5.80;;
24743;SDS011;12844;52.110;5.548;2023-03-09T11:56:00;6.18;;;5.38;;
24743;SDS011;12844;52.110;5.548;2023-03-09T11:58:51;6.38;;;5.22;;
24743;SDS011;12844;52.110;5.548;2023-03-09T12:01:25;6.60;;;5.63;;
24743;SDS011;12844;52.110;5.548;2023-03-09T12:04:14;6.95;;;5.80;;
24743;SDS011;12844;52.110;5.548;2023-03-09T12:09:24;6.18;;;5.15;;
24743;SDS011;12844;52.110;5.548;2023-03-09T12:11:56;6.80;;;5.55;;
24743;SDS011;12844;52.110;5.548;2023-03-09T12:14:38;7.50;;;5.70;;
24743;SDS011;12844;52.110;5.548;2023-03-09T12:17:16;7.10;;;5.78;;
24743;SDS011;12844;52.110;5.548;2023-03-09T12:19:49;7.15;;;5.57;;
24743;SDS011;12844;52.110;5.548;2023-03-09T12:22:38;6.78;;;5.65;;
24743;SDS011;12844;52.110;5.548;2023-03-09T12:25:05;6.32;;;5.38;;
24743;SDS011;12844;52.110;5.548;2023-03-09T12:27:41;6.65;;;5.60;;
24743;SDS011;12844;52.110;5.548;2023-03-09T12:32:50;7.13;;;5.00;;
24743;SDS011;12844;52.110;5.548;2023-03-09T12:42:54;6.93;;;5.68;;
24743;SDS011;12844;52.110;5.548;2023-03-09T12:45:28;6.38;;;5.28;;
24743;SDS011;12844;52.110;5.548;2023-03-09T12:48:37;5.75;;;4.88;;
24743;SDS011;12844;52.110;5.548;2023-03-09T12:53:19;6.25;;;5.32;;
24743;SDS011;12844;52.110;5.548;2023-03-09T12:55:51;6.85;;;5.20;;
24743;SDS011;12844;52.110;5.548;2023-03-09T13:00:51;6.22;;;5.10;;
24743;SDS011;12844;52.110;5.548;2023-03-09T13:03:23;6.55;;;5.40;;
24743;SDS011;12844;52.110;5.548;2023-03-09T13:05:57;6.80;;;5.60;;
24743;SDS011;12844;52.110;5.548;2023-03-09T13:14:16;6.53;;;5.22;;
24743;SDS011;12844;52.110;5.548;2023-03-09T13:17:48;5.93;;;4.97;;
24743;SDS011;12844;52.110;5.548;2023-03-09T13:19:55;6.80;;;5.40;;
24743;SDS011;12844;52.110;5.548;2023-03-09T13:22:37;6.38;;;5.22;;
24743;SDS011;12844;52.110;5.548;2023-03-09T13:25:11;6.78;;;5.68;;
24743;SDS011;12844;52.110;5.548;2023-03-09T13:27:46;6.63;;;5.50;;
24743;SDS011;12844;52.110;5.548;2023-03-09T13:30:22;6.03;;;5.18;;
24743;SDS011;12844;52.110;5.548;2023-03-09T13:37:52;6.40;;;5.10;;
24743;SDS011;12844;52.110;5.548;2023-03-09T13:40:27;6.72;;;5.05;;
24743;SDS011;12844;52.110;5.548;2023-03-09T13:42:55;6.13;;;5.38;;
24743;SDS011;12844;52.110;5.548;2023-03-09T13:45:24;6.25;;;5.20;;
24743;SDS011;12844;52.110;5.548;2023-03-09T13:47:55;6.65;;;5.22;;
24743;SDS011;12844;52.110;5.548;2023-03-09T13:50:27;6.95;;;5.18;;
24743;SDS011;12844;52.110;5.548;2023-03-09T13:52:58;7.07;;;5.32;;
24743;SDS011;12844;52.110;5.548;2023-03-09T13:55:25;6.68;;;4.97;;
24743;SDS011;12844;52.110;5.548;2023-03-09T13:57:52;6.93;;;5.30;;
24743;SDS011;12844;52.110;5.548;2023-03-09T14:00:19;6.35;;;5.10;;
24743;SDS011;12844;52.110;5.548;2023-03-09T14:02:54;6.72;;;5.40;;
24743;SDS011;12844;52.110;5.548;2023-03-09T14:05:20;6.18;;;5.22;;
24743;SDS011;12844;52.110;5.548;2023-03-09T14:07:54;6.18;;;5.07;;
24743;SDS011;12844;52.110;5.548;2023-03-09T14:12:57;6.38;;;5.07;;
24743;SDS011;12844;52.110;5.548;2023-03-09T14:15:29;5.82;;;4.70;;
24743;SDS011;12844;52.110;5.548;2023-03-09T14:17:55;6.15;;;5.03;;
24743;SDS011;12844;52.110;5.548;2023-03-09T14:20:31;5.43;;;4.50;;
24743;SDS011;12844;52.110;5.548;2023-03-09T14:25:50;6.15;;;4.75;;
24743;SDS011;12844;52.110;5.548;2023-03-09T14:28:25;5.53;;;4.63;;
24743;SDS011;12844;52.110;5.548;2023-03-09T14:30:55;6.28;;;4.88;;
24743;SDS011;12844;52.110;5.548;2023-03-09T14:33:32;5.93;;;4.78;;
24743;SDS011;12844;52.110;5.548;2023-03-09T14:39:04;5.68;;;4.50;;
24743;SDS011;12844;52.110;5.548;2023-03-09T14:41:35;5.90;;;4.82;;
24743;SDS011;12844;52.110;5.548;2023-03-09T14:44:02;5.75;;;4.85;;
24743;SDS011;12844;52.110;5.548;2023-03-09T14:46:28;5.10;;;4.38;;
24743;SDS011;12844;52.110;5.548;2023-03-09T14:48:55;6.03;;;4.85;;
24743;SDS011;12844;52.110;5.548;2023-03-09T14:51:32;5.70;;;4.45;;
24743;SDS011;12844;52.110;5.548;2023-03-09T14:54:01;5.20;;;4.40;;
24743;SDS011;12844;52.110;5.548;2023-03-09T14:56:36;5.82;;;4.80;;
24743;SDS011;12844;52.110;5.548;2023-03-09T14:59:35;5.60;;;4.47;;
24743;SDS011;12844;52.110;5.548;2023-03-09T15:01:54;5.17;;;4.43;;
24743;SDS011;12844;52.110;5.548;2023-03-09T15:04:25;5.63;;;4.97;;
24743;SDS011;12844;52.110;5.548;2023-03-09T15:06:52;6.13;;;4.80;;
24743;SDS011;12844;52.110;5.548;2023-03-09T15:09:18;6.18;;;4.85;;
24743;SDS011;12844;52.110;5.548;2023-03-09T15:11:44;6.10;;;5.20;;
24743;SDS011;12844;52.110;5.548;2023-03-09T15:14:14;5.43;;;4.57;;
24743;SDS011;12844;52.110;5.548;2023-03-09T15:16:47;5.22;;;4.40;;
24743;SDS011;12844;52.110;5.548;2023-03-09T15:19:14;5.82;;;4.80;;
24743;SDS011;12844;52.110;5.548;2023-03-09T15:21:41;5.32;;;4.50;;
24743;SDS011;12844;52.110;5.548;2023-03-09T15:24:08;5.85;;;4.82;;
24743;SDS011;12844;52.110;5.548;2023-03-09T15:26:37;5.68;;;4.63;;
24743;SDS011;12844;52.110;5.548;2023-03-09T15:29:03;5.57;;;4.90;;
24743;SDS011;12844;52.110;5.548;2023-03-09T15:31:28;5.30;;;4.50;;
24743;SDS011;12844;52.110;5.548;2023-03-09T15:33:55;5.63;;;4.38;;
24743;SDS011;12844;52.110;5.548;2023-03-09T15:36:21;5.13;;;4.45;;
24743;SDS011;12844;52.110;5.548;2023-03-09T15:38:47;4.85;;;4.10;;
24743;SDS011;12844;52.110;5.548;2023-03-09T15:41:13;5.38;;;4.07;;
24743;SDS011;12844;52.110;5.548;2023-03-09T15:43:39;5.18;;;4.10;;
24743;SDS011;12844;52.110;5.548;2023-03-09T15:46:05;5.25;;;4.65;;
24743;SDS011;12844;52.110;5.548;2023-03-09T15:48:31;6.00;;;4.65;;
24743;SDS011;12844;52.110;5.548;2023-03-09T15:50:56;5.00;;;4.18;;
24743;SDS011;12844;52.110;5.548;2023-03-09T15:53:22;4.75;;;3.75;;
24743;SDS011;12844;52.110;5.548;2023-03-09T15:55:58;4.63;;;3.97;;
24743;SDS011;12844;52.110;5.548;2023-03-09T15:58:28;4.60;;;3.63;;
24743;SDS011;12844;52.110;5.548;2023-03-09T16:00:58;4.85;;;3.90;;
24743;SDS011;12844;52.110;5.548;2023-03-09T16:03:26;5.22;;;4.10;;
24743;SDS011;12844;52.110;5.548;2023-03-09T16:05:53;4.90;;;4.40;;
24743;SDS011;12844;52.110;5.548;2023-03-09T16:08:19;5.00;;;4.10;;
24743;SDS011;12844;52.110;5.548;2023-03-09T16:10:44;5.30;;;4.28;;
24743;SDS011;12844;52.110;5.548;2023-03-09T16:13:10;5.18;;;4.00;;
24743;SDS011;12844;52.110;5.548;2023-03-09T16:15:35;4.85;;;4.00;;
24743;SDS011;12844;52.110;5.548;2023-03-09T16:18:01;4.72;;;4.00;;
24743;SDS011;12844;52.110;5.548;2023-03-09T16:20:26;4.65;;;3.92;;
24743;SDS011;12844;52.110;5.548;2023-03-09T16:22:52;5.45;;;4.00;;
24743;SDS011;12844;52.110;5.548;2023-03-09T16:25:17;4.40;;;3.72;;
24743;SDS011;12844;52.110;5.548;2023-03-09T16:27:43;4.72;;;3.88;;
24743;SDS011;12844;52.110;5.548;2023-03-09T16:30:09;4.80;;;3.80;;
24743;SDS011;12844;52.110;5.548;2023-03-09T16:32:36;4.40;;;3.63;;
24743;SDS011;12844;52.110;5.548;2023-03-09T16:35:03;4.90;;;3.90;;
24743;SDS011;12844;52.110;5.548;2023-03-09T16:37:33;3.97;;;3.38;;
24743;SDS011;12844;52.110;5.548;2023-03-09T16:39:59;4.72;;;3.78;;
24743;SDS011;12844;52.110;5.548;2023-03-09T16:42:24;4.25;;;3.58;;
24743;SDS011;12844;52.110;5.548;2023-03-09T16:44:51;4.47;;;3.70;;
24743;SDS011;12844;52.110;5.548;2023-03-09T16:47:18;4.38;;;3.67;;
24743;SDS011;12844;52.110;5.548;2023-03-09T16:49:48;4.82;;;3.63;;
24743;SDS011;12844;52.110;5.548;2023-03-09T16:52:14;4.18;;;3.55;;
24743;SDS011;12844;52.110;5.548;2023-03-09T16:54:40;3.83;;;3.30;;
24743;SDS011;12844;52.110;5.548;2023-03-09T16:57:06;4.20;;;3.67;;
24743;SDS011;12844;52.110;5.548;2023-03-09T16:59:31;4.03;;;3.33;;
24743;SDS011;12844;52.110;5.548;2023-03-09T17:01:57;4.63;;;3.63;;
24743;SDS011;12844;52.110;5.548;2023-03-09T17:04:22;3.85;;;3.38;;
24743;SDS011;12844;52.110;5.548;2023-03-09T17:06:48;4.07;;;3.50;;
24743;SDS011;12844;52.110;5.548;2023-03-09T17:09:14;3.95;;;3.20;;
24743;SDS011;12844;52.110;5.548;2023-03-09T17:11:40;3.75;;;3.15;;
24743;SDS011;12844;52.110;5.548;2023-03-09T17:14:05;4.30;;;3.53;;
24743;SDS011;12844;52.110;5.548;2023-03-09T17:16:34;4.57;;;3.38;;